Wells-next-the-Sea, United Kingdom
Current Conditions -  °F | °C
As of 2:50 PM on Thursday 30 Oct 2014 (Local Time) from EGYM Reporting Station
Broken Clouds Broken Clouds  
Wind Chill: 63°   Ceiling: 4000
Heat Index: 63°   Visibility: 6mi
Dew Point: 57°   Wind: 15mph
Humidity: 82%   Direction: 200°SSW
Pressure: 30.03"   Gusts: NA
Location:  52.95°N, 0.85°E
Report Text: EGYM 301450Z 20013KT 9999 FEW020 BKN040 17/14 Q1017 BLU TEMPO 7000 HZ WHT
Loading
Personal Weather Stations






























Interactive Weather Map
Tropical Storm Tracking
New forecast layout! Learn more

10-Day Weather Forecast

Advertisements
Track Severe Weather on mobile